sensor_id;sensor_type;location;lat;lon;timestamp;P1;durP1;ratioP1;P2;durP2;ratioP2
64313;SDS011;50650;48.180;11.524;2023-07-24T00:01:43;10.70;;;5.47;;
64313;SDS011;50650;48.180;11.524;2023-07-24T00:04:14;11.23;;;5.72;;
64313;SDS011;50650;48.180;11.524;2023-07-24T00:06:40;11.10;;;5.68;;
64313;SDS011;50650;48.180;11.524;2023-07-24T00:09:06;9.55;;;5.60;;
64313;SDS011;50650;48.180;11.524;2023-07-24T00:11:33;9.80;;;5.47;;
64313;SDS011;50650;48.180;11.524;2023-07-24T00:13:59;9.30;;;5.50;;
64313;SDS011;50650;48.180;11.524;2023-07-24T00:16:26;9.48;;;6.13;;
64313;SDS011;50650;48.180;11.524;2023-07-24T00:18:52;9.23;;;5.55;;
64313;SDS011;50650;48.180;11.524;2023-07-24T00:21:23;10.68;;;5.93;;
64313;SDS011;50650;48.180;11.524;2023-07-24T00:23:49;9.27;;;5.78;;
64313;SDS011;50650;48.180;11.524;2023-07-24T00:26:16;7.90;;;5.68;;
64313;SDS011;50650;48.180;11.524;2023-07-24T00:28:45;8.95;;;5.75;;
64313;SDS011;50650;48.180;11.524;2023-07-24T00:31:11;8.93;;;5.65;;
64313;SDS011;50650;48.180;11.524;2023-07-24T00:33:38;8.77;;;5.35;;
64313;SDS011;50650;48.180;11.524;2023-07-24T00:36:04;10.23;;;5.53;;
64313;SDS011;50650;48.180;11.524;2023-07-24T00:38:32;8.75;;;5.60;;
64313;SDS011;50650;48.180;11.524;2023-07-24T00:40:59;8.57;;;5.85;;
64313;SDS011;50650;48.180;11.524;2023-07-24T00:43:25;10.57;;;6.28;;
64313;SDS011;50650;48.180;11.524;2023-07-24T00:45:51;9.82;;;5.70;;
64313;SDS011;50650;48.180;11.524;2023-07-24T00:48:18;7.43;;;5.07;;
64313;SDS011;50650;48.180;11.524;2023-07-24T00:50:47;9.85;;;5.78;;
64313;SDS011;50650;48.180;11.524;2023-07-24T00:53:16;10.05;;;5.82;;
64313;SDS011;50650;48.180;11.524;2023-07-24T00:55:44;8.77;;;5.50;;
64313;SDS011;50650;48.180;11.524;2023-07-24T00:58:11;8.90;;;5.55;;
64313;SDS011;50650;48.180;11.524;2023-07-24T01:00:38;11.45;;;5.93;;
64313;SDS011;50650;48.180;11.524;2023-07-24T01:03:05;9.88;;;6.07;;
64313;SDS011;50650;48.180;11.524;2023-07-24T01:05:31;8.48;;;5.65;;
64313;SDS011;50650;48.180;11.524;2023-07-24T01:07:57;11.75;;;5.80;;
64313;SDS011;50650;48.180;11.524;2023-07-24T01:10:24;10.95;;;5.63;;
64313;SDS011;50650;48.180;11.524;2023-07-24T01:12:53;8.48;;;6.03;;
64313;SDS011;50650;48.180;11.524;2023-07-24T01:15:32;9.77;;;6.07;;
64313;SDS011;50650;48.180;11.524;2023-07-24T01:17:59;8.85;;;5.43;;
64313;SDS011;50650;48.180;11.524;2023-07-24T01:20:28;8.45;;;5.30;;
64313;SDS011;50650;48.180;11.524;2023-07-24T01:23:03;9.30;;;5.82;;
64313;SDS011;50650;48.180;11.524;2023-07-24T01:25:51;8.70;;;5.32;;
64313;SDS011;50650;48.180;11.524;2023-07-24T01:28:19;9.82;;;5.65;;
64313;SDS011;50650;48.180;11.524;2023-07-24T01:30:48;13.32;;;5.70;;
64313;SDS011;50650;48.180;11.524;2023-07-24T01:33:14;9.98;;;5.75;;
64313;SDS011;50650;48.180;11.524;2023-07-24T01:35:41;7.78;;;5.35;;
64313;SDS011;50650;48.180;11.524;2023-07-24T01:38:09;8.02;;;5.63;;
64313;SDS011;50650;48.180;11.524;2023-07-24T01:40:35;8.43;;;5.50;;
64313;SDS011;50650;48.180;11.524;2023-07-24T01:43:03;8.48;;;5.45;;
64313;SDS011;50650;48.180;11.524;2023-07-24T01:45:32;15.65;;;5.72;;
64313;SDS011;50650;48.180;11.524;2023-07-24T01:47:59;10.18;;;5.60;;
64313;SDS011;50650;48.180;11.524;2023-07-24T01:50:25;7.05;;;4.80;;
64313;SDS011;50650;48.180;11.524;2023-07-24T01:52:52;6.90;;;5.07;;
64313;SDS011;50650;48.180;11.524;2023-07-24T01:55:18;7.60;;;5.25;;
64313;SDS011;50650;48.180;11.524;2023-07-24T01:57:45;10.18;;;5.53;;
64313;SDS011;50650;48.180;11.524;2023-07-24T02:00:13;8.32;;;5.10;;
64313;SDS011;50650;48.180;11.524;2023-07-24T02:02:39;10.93;;;5.68;;
64313;SDS011;50650;48.180;11.524;2023-07-24T02:05:06;10.85;;;6.13;;
64313;SDS011;50650;48.180;11.524;2023-07-24T02:07:33;11.07;;;5.85;;
64313;SDS011;50650;48.180;11.524;2023-07-24T02:09:59;12.82;;;6.18;;
64313;SDS011;50650;48.180;11.524;2023-07-24T02:12:26;11.60;;;5.75;;
64313;SDS011;50650;48.180;11.524;2023-07-24T02:14:52;8.75;;;5.50;;
64313;SDS011;50650;48.180;11.524;2023-07-24T02:17:21;9.40;;;5.70;;
64313;SDS011;50650;48.180;11.524;2023-07-24T02:19:47;10.60;;;5.82;;
64313;SDS011;50650;48.180;11.524;2023-07-24T02:22:21;9.48;;;5.70;;
64313;SDS011;50650;48.180;11.524;2023-07-24T02:24:47;8.75;;;5.30;;
64313;SDS011;50650;48.180;11.524;2023-07-24T02:27:27;8.48;;;5.50;;
64313;SDS011;50650;48.180;11.524;2023-07-24T02:29:56;9.20;;;5.78;;
64313;SDS011;50650;48.180;11.524;2023-07-24T02:32:24;9.30;;;6.13;;
64313;SDS011;50650;48.180;11.524;2023-07-24T02:34:50;14.23;;;6.43;;
64313;SDS011;50650;48.180;11.524;2023-07-24T02:37:20;9.85;;;6.05;;
64313;SDS011;50650;48.180;11.524;2023-07-24T02:39:46;14.10;;;6.90;;
64313;SDS011;50650;48.180;11.524;2023-07-24T02:42:15;9.68;;;6.13;;
64313;SDS011;50650;48.180;11.524;2023-07-24T02:44:45;11.25;;;6.40;;
64313;SDS011;50650;48.180;11.524;2023-07-24T02:47:14;9.50;;;5.90;;
64313;SDS011;50650;48.180;11.524;2023-07-24T02:49:42;10.82;;;6.43;;
64313;SDS011;50650;48.180;11.524;2023-07-24T02:52:09;12.45;;;6.72;;
64313;SDS011;50650;48.180;11.524;2023-07-24T02:54:35;11.52;;;6.63;;
64313;SDS011;50650;48.180;11.524;2023-07-24T02:57:02;9.38;;;6.45;;
64313;SDS011;50650;48.180;11.524;2023-07-24T02:59:31;9.63;;;6.00;;
64313;SDS011;50650;48.180;11.524;2023-07-24T03:01:57;9.27;;;5.55;;
64313;SDS011;50650;48.180;11.524;2023-07-24T03:04:24;11.30;;;6.55;;
64313;SDS011;50650;48.180;11.524;2023-07-24T03:06:52;12.38;;;6.18;;
64313;SDS011;50650;48.180;11.524;2023-07-24T03:09:18;10.35;;;6.25;;
64313;SDS011;50650;48.180;11.524;2023-07-24T03:11:48;13.55;;;7.15;;
64313;SDS011;50650;48.180;11.524;2023-07-24T03:14:22;10.07;;;6.25;;
64313;SDS011;50650;48.180;11.524;2023-07-24T03:16:48;9.63;;;6.43;;
64313;SDS011;50650;48.180;11.524;2023-07-24T03:19:15;13.80;;;6.75;;
64313;SDS011;50650;48.180;11.524;2023-07-24T03:21:45;11.90;;;6.20;;
64313;SDS011;50650;48.180;11.524;2023-07-24T03:24:13;11.60;;;6.85;;
64313;SDS011;50650;48.180;11.524;2023-07-24T03:26:39;12.15;;;6.90;;
64313;SDS011;50650;48.180;11.524;2023-07-24T03:29:05;9.98;;;6.78;;
64313;SDS011;50650;48.180;11.524;2023-07-24T03:31:32;11.10;;;6.85;;
64313;SDS011;50650;48.180;11.524;2023-07-24T03:33:58;13.75;;;7.43;;
64313;SDS011;50650;48.180;11.524;2023-07-24T03:36:25;11.23;;;7.35;;
64313;SDS011;50650;48.180;11.524;2023-07-24T03:38:54;13.95;;;6.80;;
64313;SDS011;50650;48.180;11.524;2023-07-24T03:41:22;12.23;;;7.38;;
64313;SDS011;50650;48.180;11.524;2023-07-24T03:43:52;13.13;;;7.35;;
64313;SDS011;50650;48.180;11.524;2023-07-24T03:46:18;14.10;;;7.70;;
64313;SDS011;50650;48.180;11.524;2023-07-24T03:48:44;13.63;;;8.20;;
64313;SDS011;50650;48.180;11.524;2023-07-24T03:51:11;13.05;;;7.05;;
64313;SDS011;50650;48.180;11.524;2023-07-24T03:53:40;11.57;;;7.18;;
64313;SDS011;50650;48.180;11.524;2023-07-24T03:56:07;12.82;;;8.00;;
64313;SDS011;50650;48.180;11.524;2023-07-24T03:58:38;15.60;;;7.60;;
64313;SDS011;50650;48.180;11.524;2023-07-24T04:01:04;11.38;;;7.45;;
64313;SDS011;50650;48.180;11.524;2023-07-24T04:03:31;12.93;;;7.60;;
64313;SDS011;50650;48.180;11.524;2023-07-24T04:05:57;17.50;;;7.65;;
64313;SDS011;50650;48.180;11.524;2023-07-24T04:08:24;12.13;;;7.90;;
64313;SDS011;50650;48.180;11.524;2023-07-24T04:10:51;13.88;;;8.43;;
64313;SDS011;50650;48.180;11.524;2023-07-24T04:13:17;16.77;;;8.32;;
64313;SDS011;50650;48.180;11.524;2023-07-24T04:15:45;13.10;;;8.38;;
64313;SDS011;50650;48.180;11.524;2023-07-24T04:18:17;14.45;;;7.78;;
64313;SDS011;50650;48.180;11.524;2023-07-24T04:20:44;14.15;;;7.95;;
64313;SDS011;50650;48.180;11.524;2023-07-24T04:23:13;14.30;;;8.00;;
64313;SDS011;50650;48.180;11.524;2023-07-24T04:25:42;13.40;;;8.30;;
64313;SDS011;50650;48.180;11.524;2023-07-24T04:28:12;15.80;;;8.57;;
64313;SDS011;50650;48.180;11.524;2023-07-24T04:30:38;16.58;;;8.55;;
64313;SDS011;50650;48.180;11.524;2023-07-24T04:33:06;12.98;;;8.25;;
64313;SDS011;50650;48.180;11.524;2023-07-24T04:35:32;14.50;;;8.18;;
64313;SDS011;50650;48.180;11.524;2023-07-24T04:37:59;12.57;;;8.40;;
64313;SDS011;50650;48.180;11.524;2023-07-24T04:40:25;12.77;;;8.10;;
64313;SDS011;50650;48.180;11.524;2023-07-24T04:42:52;16.90;;;8.60;;
64313;SDS011;50650;48.180;11.524;2023-07-24T04:45:18;14.68;;;8.75;;
64313;SDS011;50650;48.180;11.524;2023-07-24T04:47:45;14.20;;;8.15;;
64313;SDS011;50650;48.180;11.524;2023-07-24T04:50:13;14.82;;;8.10;;
64313;SDS011;50650;48.180;11.524;2023-07-24T04:52:39;14.07;;;8.52;;
64313;SDS011;50650;48.180;11.524;2023-07-24T04:55:06;15.13;;;8.70;;
64313;SDS011;50650;48.180;11.524;2023-07-24T04:57:42;17.98;;;8.57;;
64313;SDS011;50650;48.180;11.524;2023-07-24T05:00:11;12.63;;;8.55;;
64313;SDS011;50650;48.180;11.524;2023-07-24T05:02:41;15.05;;;8.27;;
64313;SDS011;50650;48.180;11.524;2023-07-24T05:05:08;14.23;;;8.32;;
64313;SDS011;50650;48.180;11.524;2023-07-24T05:07:36;19.17;;;8.85;;
64313;SDS011;50650;48.180;11.524;2023-07-24T05:10:03;14.13;;;8.40;;
64313;SDS011;50650;48.180;11.524;2023-07-24T05:12:30;15.95;;;8.27;;
64313;SDS011;50650;48.180;11.524;2023-07-24T05:14:56;11.93;;;7.90;;
64313;SDS011;50650;48.180;11.524;2023-07-24T05:17:23;17.15;;;8.30;;
64313;SDS011;50650;48.180;11.524;2023-07-24T05:19:52;13.85;;;8.20;;
64313;SDS011;50650;48.180;11.524;2023-07-24T05:22:19;11.80;;;7.97;;
64313;SDS011;50650;48.180;11.524;2023-07-24T05:24:46;12.68;;;8.13;;
64313;SDS011;50650;48.180;11.524;2023-07-24T05:27:13;13.90;;;8.52;;
64313;SDS011;50650;48.180;11.524;2023-07-24T05:29:41;14.07;;;7.97;;
64313;SDS011;50650;48.180;11.524;2023-07-24T05:32:07;11.57;;;7.45;;
64313;SDS011;50650;48.180;11.524;2023-07-24T05:34:34;13.80;;;8.02;;
64313;SDS011;50650;48.180;11.524;2023-07-24T05:37:00;12.65;;;7.70;;
64313;SDS011;50650;48.180;11.524;2023-07-24T05:39:26;13.77;;;7.35;;
64313;SDS011;50650;48.180;11.524;2023-07-24T05:41:54;11.10;;;7.03;;
64313;SDS011;50650;48.180;11.524;2023-07-24T05:44:21;11.20;;;7.45;;
64313;SDS011;50650;48.180;11.524;2023-07-24T05:46:47;15.25;;;7.43;;
64313;SDS011;50650;48.180;11.524;2023-07-24T05:49:13;13.50;;;7.47;;
64313;SDS011;50650;48.180;11.524;2023-07-24T05:51:43;11.23;;;7.28;;
64313;SDS011;50650;48.180;11.524;2023-07-24T05:54:09;13.85;;;7.57;;
64313;SDS011;50650;48.180;11.524;2023-07-24T05:56:38;13.18;;;6.97;;
64313;SDS011;50650;48.180;11.524;2023-07-24T05:59:06;10.65;;;6.57;;
64313;SDS011;50650;48.180;11.524;2023-07-24T06:01:32;10.73;;;6.82;;
64313;SDS011;50650;48.180;11.524;2023-07-24T06:03:59;12.98;;;6.72;;
64313;SDS011;50650;48.180;11.524;2023-07-24T06:06:25;11.60;;;6.97;;
64313;SDS011;50650;48.180;11.524;2023-07-24T06:08:56;10.73;;;6.68;;
64313;SDS011;50650;48.180;11.524;2023-07-24T06:11:22;11.00;;;6.32;;
64313;SDS011;50650;48.180;11.524;2023-07-24T06:13:49;11.50;;;6.47;;
64313;SDS011;50650;48.180;11.524;2023-07-24T06:16:19;12.27;;;6.55;;
64313;SDS011;50650;48.180;11.524;2023-07-24T06:18:45;12.05;;;6.82;;
64313;SDS011;50650;48.180;11.524;2023-07-24T06:21:13;13.55;;;6.65;;
64313;SDS011;50650;48.180;11.524;2023-07-24T06:23:42;11.15;;;7.18;;
64313;SDS011;50650;48.180;11.524;2023-07-24T06:26:10;10.75;;;6.03;;
64313;SDS011;50650;48.180;11.524;2023-07-24T06:28:37;17.17;;;6.80;;
64313;SDS011;50650;48.180;11.524;2023-07-24T06:31:03;11.82;;;7.55;;
64313;SDS011;50650;48.180;11.524;2023-07-24T06:33:31;11.07;;;6.85;;
64313;SDS011;50650;48.180;11.524;2023-07-24T06:36:00;11.77;;;7.18;;
64313;SDS011;50650;48.180;11.524;2023-07-24T06:38:27;13.90;;;6.60;;
64313;SDS011;50650;48.180;11.524;2023-07-24T06:40:53;9.00;;;6.32;;
64313;SDS011;50650;48.180;11.524;2023-07-24T06:43:20;10.75;;;7.05;;
64313;SDS011;50650;48.180;11.524;2023-07-24T06:45:48;13.05;;;6.57;;
64313;SDS011;50650;48.180;11.524;2023-07-24T06:48:18;10.13;;;5.90;;
64313;SDS011;50650;48.180;11.524;2023-07-24T06:50:46;11.60;;;6.82;;
64313;SDS011;50650;48.180;11.524;2023-07-24T06:53:12;13.75;;;5.88;;
64313;SDS011;50650;48.180;11.524;2023-07-24T06:55:38;10.90;;;6.53;;
64313;SDS011;50650;48.180;11.524;2023-07-24T06:58:05;11.30;;;6.80;;
64313;SDS011;50650;48.180;11.524;2023-07-24T07:00:31;10.40;;;7.07;;
64313;SDS011;50650;48.180;11.524;2023-07-24T07:02:58;13.02;;;6.78;;
64313;SDS011;50650;48.180;11.524;2023-07-24T07:05:27;14.77;;;7.15;;
64313;SDS011;50650;48.180;11.524;2023-07-24T07:07:54;10.07;;;6.57;;
64313;SDS011;50650;48.180;11.524;2023-07-24T07:10:21;13.30;;;6.65;;
64313;SDS011;50650;48.180;11.524;2023-07-24T07:12:47;12.98;;;6.80;;
64313;SDS011;50650;48.180;11.524;2023-07-24T07:15:14;11.48;;;6.53;;
64313;SDS011;50650;48.180;11.524;2023-07-24T07:17:43;12.27;;;7.03;;
64313;SDS011;50650;48.180;11.524;2023-07-24T07:20:10;12.35;;;6.75;;
64313;SDS011;50650;48.180;11.524;2023-07-24T07:22:36;11.35;;;6.38;;
64313;SDS011;50650;48.180;11.524;2023-07-24T07:25:04;11.25;;;6.55;;
64313;SDS011;50650;48.180;11.524;2023-07-24T07:27:31;9.57;;;7.03;;
64313;SDS011;50650;48.180;11.524;2023-07-24T07:30:00;10.80;;;7.05;;
64313;SDS011;50650;48.180;11.524;2023-07-24T07:32:30;9.82;;;6.60;;
64313;SDS011;50650;48.180;11.524;2023-07-24T07:34:56;9.18;;;5.80;;
64313;SDS011;50650;48.180;11.524;2023-07-24T07:37:23;11.57;;;6.35;;
64313;SDS011;50650;48.180;11.524;2023-07-24T07:39:49;11.95;;;7.10;;
64313;SDS011;50650;48.180;11.524;2023-07-24T07:42:18;14.20;;;6.78;;
64313;SDS011;50650;48.180;11.524;2023-07-24T07:44:47;15.52;;;6.75;;
64313;SDS011;50650;48.180;11.524;2023-07-24T07:47:14;11.00;;;6.88;;
64313;SDS011;50650;48.180;11.524;2023-07-24T07:49:43;14.30;;;7.40;;
64313;SDS011;50650;48.180;11.524;2023-07-24T07:52:11;11.77;;;6.47;;
64313;SDS011;50650;48.180;11.524;2023-07-24T07:54:48;11.98;;;7.00;;
64313;SDS011;50650;48.180;11.524;2023-07-24T07:57:15;12.02;;;6.65;;
64313;SDS011;50650;48.180;11.524;2023-07-24T07:59:43;11.45;;;6.75;;
64313;SDS011;50650;48.180;11.524;2023-07-24T08:02:09;11.07;;;6.32;;
64313;SDS011;50650;48.180;11.524;2023-07-24T08:04:36;13.55;;;6.55;;
64313;SDS011;50650;48.180;11.524;2023-07-24T08:07:04;14.00;;;7.10;;
64313;SDS011;50650;48.180;11.524;2023-07-24T08:09:33;12.77;;;7.03;;
64313;SDS011;50650;48.180;11.524;2023-07-24T08:12:04;10.23;;;6.90;;
64313;SDS011;50650;48.180;11.524;2023-07-24T08:14:30;12.25;;;6.68;;
64313;SDS011;50650;48.180;11.524;2023-07-24T08:17:04;14.90;;;7.28;;
64313;SDS011;50650;48.180;11.524;2023-07-24T08:19:31;9.02;;;5.97;;
64313;SDS011;50650;48.180;11.524;2023-07-24T08:22:00;12.35;;;6.43;;
64313;SDS011;50650;48.180;11.524;2023-07-24T08:24:26;9.90;;;5.70;;
64313;SDS011;50650;48.180;11.524;2023-07-24T08:26:53;10.90;;;6.07;;
64313;SDS011;50650;48.180;11.524;2023-07-24T08:29:20;10.43;;;5.63;;
64313;SDS011;50650;48.180;11.524;2023-07-24T08:31:46;8.80;;;5.10;;
64313;SDS011;50650;48.180;11.524;2023-07-24T08:34:14;9.68;;;5.55;;
64313;SDS011;50650;48.180;11.524;2023-07-24T08:36:41;7.85;;;4.78;;
64313;SDS011;50650;48.180;11.524;2023-07-24T08:39:07;6.80;;;4.97;;
64313;SDS011;50650;48.180;11.524;2023-07-24T08:41:33;7.47;;;4.93;;
64313;SDS011;50650;48.180;11.524;2023-07-24T08:44:02;9.23;;;5.22;;
64313;SDS011;50650;48.180;11.524;2023-07-24T08:46:30;7.70;;;5.10;;
64313;SDS011;50650;48.180;11.524;2023-07-24T08:48:59;9.73;;;5.15;;
64313;SDS011;50650;48.180;11.524;2023-07-24T08:51:27;8.00;;;5.43;;
64313;SDS011;50650;48.180;11.524;2023-07-24T08:53:54;8.60;;;5.30;;
64313;SDS011;50650;48.180;11.524;2023-07-24T08:56:20;9.52;;;5.35;;
64313;SDS011;50650;48.180;11.524;2023-07-24T08:58:47;8.77;;;5.60;;
64313;SDS011;50650;48.180;11.524;2023-07-24T09:01:13;11.23;;;5.28;;
64313;SDS011;50650;48.180;11.524;2023-07-24T09:03:40;10.73;;;5.25;;
64313;SDS011;50650;48.180;11.524;2023-07-24T09:06:06;8.40;;;6.00;;
64313;SDS011;50650;48.180;11.524;2023-07-24T09:08:35;13.27;;;6.28;;
64313;SDS011;50650;48.180;11.524;2023-07-24T09:11:03;8.98;;;5.68;;
64313;SDS011;50650;48.180;11.524;2023-07-24T09:13:30;9.80;;;6.80;;
64313;SDS011;50650;48.180;11.524;2023-07-24T09:15:57;12.65;;;6.35;;
64313;SDS011;50650;48.180;11.524;2023-07-24T09:18:24;12.75;;;6.75;;
64313;SDS011;50650;48.180;11.524;2023-07-24T09:20:51;9.43;;;6.15;;
64313;SDS011;50650;48.180;11.524;2023-07-24T09:23:25;9.13;;;5.88;;
64313;SDS011;50650;48.180;11.524;2023-07-24T09:25:53;12.80;;;6.65;;
64313;SDS011;50650;48.180;11.524;2023-07-24T09:28:19;14.25;;;6.72;;
64313;SDS011;50650;48.180;11.524;2023-07-24T09:30:53;13.98;;;6.53;;
64313;SDS011;50650;48.180;11.524;2023-07-24T09:33:33;12.95;;;6.50;;
64313;SDS011;50650;48.180;11.524;2023-07-24T09:36:01;10.45;;;6.25;;
64313;SDS011;50650;48.180;11.524;2023-07-24T09:38:31;10.88;;;6.38;;
64313;SDS011;50650;48.180;11.524;2023-07-24T09:41:05;16.88;;;6.60;;
64313;SDS011;50650;48.180;11.524;2023-07-24T09:43:32;10.55;;;6.78;;
64313;SDS011;50650;48.180;11.524;2023-07-24T09:46:00;10.48;;;6.40;;
64313;SDS011;50650;48.180;11.524;2023-07-24T09:48:27;9.00;;;5.53;;
64313;SDS011;50650;48.180;11.524;2023-07-24T09:51:01;10.63;;;5.72;;
64313;SDS011;50650;48.180;11.524;2023-07-24T09:53:31;9.20;;;5.30;;
64313;SDS011;50650;48.180;11.524;2023-07-24T09:56:00;9.85;;;4.15;;
64313;SDS011;50650;48.180;11.524;2023-07-24T09:58:30;7.85;;;4.25;;
64313;SDS011;50650;48.180;11.524;2023-07-24T10:00:59;9.80;;;4.45;;
64313;SDS011;50650;48.180;11.524;2023-07-24T10:03:26;6.35;;;4.40;;
64313;SDS011;50650;48.180;11.524;2023-07-24T10:05:52;6.50;;;4.15;;
64313;SDS011;50650;48.180;11.524;2023-07-24T10:08:19;6.85;;;3.92;;
64313;SDS011;50650;48.180;11.524;2023-07-24T10:10:49;7.03;;;3.97;;
64313;SDS011;50650;48.180;11.524;2023-07-24T10:13:17;7.10;;;3.88;;
64313;SDS011;50650;48.180;11.524;2023-07-24T10:15:46;6.97;;;3.97;;
64313;SDS011;50650;48.180;11.524;2023-07-24T10:18:16;6.47;;;3.72;;
64313;SDS011;50650;48.180;11.524;2023-07-24T10:20:46;6.40;;;3.55;;
64313;SDS011;50650;48.180;11.524;2023-07-24T10:23:16;5.78;;;3.80;;
64313;SDS011;50650;48.180;11.524;2023-07-24T10:25:44;5.18;;;3.63;;
64313;SDS011;50650;48.180;11.524;2023-07-24T10:28:12;6.30;;;3.67;;
64313;SDS011;50650;48.180;11.524;2023-07-24T10:30:41;5.90;;;3.33;;
64313;SDS011;50650;48.180;11.524;2023-07-24T10:33:10;6.07;;;3.55;;
64313;SDS011;50650;48.180;11.524;2023-07-24T10:35:39;4.75;;;3.58;;
64313;SDS011;50650;48.180;11.524;2023-07-24T10:38:06;6.57;;;4.32;;
64313;SDS011;50650;48.180;11.524;2023-07-24T10:40:32;6.90;;;4.45;;
64313;SDS011;50650;48.180;11.524;2023-07-24T10:43:04;5.82;;;3.80;;
64313;SDS011;50650;48.180;11.524;2023-07-24T10:45:46;6.35;;;3.72;;
64313;SDS011;50650;48.180;11.524;2023-07-24T10:48:18;5.03;;;4.07;;
64313;SDS011;50650;48.180;11.524;2023-07-24T10:50:46;6.88;;;3.92;;
64313;SDS011;50650;48.180;11.524;2023-07-24T10:53:14;5.25;;;3.55;;
64313;SDS011;50650;48.180;11.524;2023-07-24T10:55:41;6.40;;;3.83;;
64313;SDS011;50650;48.180;11.524;2023-07-24T10:58:08;4.82;;;3.85;;
64313;SDS011;50650;48.180;11.524;2023-07-24T11:00:35;5.88;;;3.67;;
64313;SDS011;50650;48.180;11.524;2023-07-24T11:03:02;6.30;;;3.42;;
64313;SDS011;50650;48.180;11.524;2023-07-24T11:05:30;5.55;;;3.67;;
64313;SDS011;50650;48.180;11.524;2023-07-24T11:07:57;5.15;;;3.50;;
64313;SDS011;50650;48.180;11.524;2023-07-24T11:10:23;5.28;;;3.40;;
64313;SDS011;50650;48.180;11.524;2023-07-24T11:12:55;5.60;;;3.17;;
64313;SDS011;50650;48.180;11.524;2023-07-24T11:15:24;4.75;;;3.38;;
64313;SDS011;50650;48.180;11.524;2023-07-24T11:17:52;5.53;;;3.63;;
64313;SDS011;50650;48.180;11.524;2023-07-24T11:20:19;5.13;;;3.15;;
64313;SDS011;50650;48.180;11.524;2023-07-24T11:22:49;5.28;;;3.53;;
64313;SDS011;50650;48.180;11.524;2023-07-24T11:25:16;6.65;;;3.45;;
64313;SDS011;50650;48.180;11.524;2023-07-24T11:27:43;4.07;;;3.20;;
64313;SDS011;50650;48.180;11.524;2023-07-24T11:30:18;4.68;;;3.53;;
64313;SDS011;50650;48.180;11.524;2023-07-24T11:32:45;6.05;;;3.40;;
64313;SDS011;50650;48.180;11.524;2023-07-24T11:35:26;4.68;;;3.45;;
64313;SDS011;50650;48.180;11.524;2023-07-24T11:37:54;4.28;;;3.05;;
64313;SDS011;50650;48.180;11.524;2023-07-24T11:40:21;4.97;;;3.05;;
64313;SDS011;50650;48.180;11.524;2023-07-24T11:42:47;4.53;;;2.95;;
64313;SDS011;50650;48.180;11.524;2023-07-24T11:45:20;3.80;;;3.00;;
64313;SDS011;50650;48.180;11.524;2023-07-24T11:47:50;3.83;;;3.00;;
64313;SDS011;50650;48.180;11.524;2023-07-24T11:50:18;5.22;;;3.20;;
64313;SDS011;50650;48.180;11.524;2023-07-24T11:52:48;7.95;;;3.45;;
64313;SDS011;50650;48.180;11.524;2023-07-24T11:55:17;6.75;;;3.38;;
64313;SDS011;50650;48.180;11.524;2023-07-24T11:57:54;5.07;;;3.15;;
64313;SDS011;50650;48.180;11.524;2023-07-24T12:00:21;4.45;;;3.13;;
64313;SDS011;50650;48.180;11.524;2023-07-24T12:02:48;4.35;;;3.13;;
64313;SDS011;50650;48.180;11.524;2023-07-24T12:05:15;4.68;;;3.15;;
64313;SDS011;50650;48.180;11.524;2023-07-24T12:07:42;4.90;;;3.45;;
64313;SDS011;50650;48.180;11.524;2023-07-24T12:10:10;6.25;;;3.90;;
64313;SDS011;50650;48.180;11.524;2023-07-24T12:12:38;5.20;;;3.60;;
64313;SDS011;50650;48.180;11.524;2023-07-24T12:15:08;5.40;;;3.65;;
64313;SDS011;50650;48.180;11.524;2023-07-24T12:17:38;5.68;;;3.97;;
64313;SDS011;50650;48.180;11.524;2023-07-24T12:20:08;6.53;;;4.25;;
64313;SDS011;50650;48.180;11.524;2023-07-24T12:22:38;6.63;;;4.00;;
64313;SDS011;50650;48.180;11.524;2023-07-24T12:25:05;7.18;;;3.88;;
64313;SDS011;50650;48.180;11.524;2023-07-24T12:27:35;6.38;;;3.67;;
64313;SDS011;50650;48.180;11.524;2023-07-24T12:30:04;5.20;;;3.28;;
64313;SDS011;50650;48.180;11.524;2023-07-24T12:32:31;6.80;;;3.60;;
64313;SDS011;50650;48.180;11.524;2023-07-24T12:34:58;5.80;;;3.65;;
64313;SDS011;50650;48.180;11.524;2023-07-24T12:37:24;8.10;;;3.72;;
64313;SDS011;50650;48.180;11.524;2023-07-24T12:39:51;8.13;;;3.95;;
64313;SDS011;50650;48.180;11.524;2023-07-24T12:42:17;7.47;;;4.25;;
64313;SDS011;50650;48.180;11.524;2023-07-24T12:44:44;6.82;;;3.33;;
64313;SDS011;50650;48.180;11.524;2023-07-24T12:47:14;6.55;;;3.75;;
64313;SDS011;50650;48.180;11.524;2023-07-24T12:49:40;7.70;;;4.40;;
64313;SDS011;50650;48.180;11.524;2023-07-24T12:52:07;8.75;;;4.43;;
64313;SDS011;50650;48.180;11.524;2023-07-24T12:54:33;5.32;;;3.53;;
64313;SDS011;50650;48.180;11.524;2023-07-24T12:57:00;6.00;;;4.30;;
64313;SDS011;50650;48.180;11.524;2023-07-24T12:59:27;8.50;;;4.13;;
64313;SDS011;50650;48.180;11.524;2023-07-24T13:01:54;5.63;;;3.88;;
64313;SDS011;50650;48.180;11.524;2023-07-24T13:04:27;5.10;;;3.90;;
64313;SDS011;50650;48.180;11.524;2023-07-24T13:06:54;5.95;;;3.80;;
64313;SDS011;50650;48.180;11.524;2023-07-24T13:09:24;6.75;;;3.75;;
64313;SDS011;50650;48.180;11.524;2023-07-24T13:11:59;5.97;;;3.72;;
64313;SDS011;50650;48.180;11.524;2023-07-24T13:14:25;5.68;;;4.00;;
64313;SDS011;50650;48.180;11.524;2023-07-24T13:16:52;6.22;;;3.63;;
64313;SDS011;50650;48.180;11.524;2023-07-24T13:19:18;6.20;;;3.38;;
64313;SDS011;50650;48.180;11.524;2023-07-24T13:21:48;7.65;;;4.07;;
64313;SDS011;50650;48.180;11.524;2023-07-24T13:24:18;5.30;;;3.10;;
64313;SDS011;50650;48.180;11.524;2023-07-24T13:26:44;5.72;;;3.60;;
64313;SDS011;50650;48.180;11.524;2023-07-24T13:29:11;6.90;;;3.80;;
64313;SDS011;50650;48.180;11.524;2023-07-24T13:31:37;7.60;;;3.90;;
64313;SDS011;50650;48.180;11.524;2023-07-24T13:34:05;6.13;;;3.40;;
64313;SDS011;50650;48.180;11.524;2023-07-24T13:36:32;7.05;;;3.92;;
64313;SDS011;50650;48.180;11.524;2023-07-24T13:38:59;5.57;;;3.78;;
64313;SDS011;50650;48.180;11.524;2023-07-24T13:41:28;5.18;;;3.42;;
64313;SDS011;50650;48.180;11.524;2023-07-24T13:43:55;7.80;;;3.38;;
64313;SDS011;50650;48.180;11.524;2023-07-24T13:46:24;6.88;;;3.83;;
64313;SDS011;50650;48.180;11.524;2023-07-24T13:48:51;5.13;;;3.65;;
64313;SDS011;50650;48.180;11.524;2023-07-24T13:51:17;6.07;;;3.78;;
64313;SDS011;50650;48.180;11.524;2023-07-24T13:53:43;5.15;;;3.50;;
64313;SDS011;50650;48.180;11.524;2023-07-24T13:56:13;8.88;;;3.85;;
64313;SDS011;50650;48.180;11.524;2023-07-24T13:58:40;9.82;;;3.80;;
64313;SDS011;50650;48.180;11.524;2023-07-24T14:01:06;6.57;;;3.55;;
64313;SDS011;50650;48.180;11.524;2023-07-24T14:03:33;6.45;;;3.50;;
64313;SDS011;50650;48.180;11.524;2023-07-24T14:06:02;7.45;;;3.75;;
64313;SDS011;50650;48.180;11.524;2023-07-24T14:08:28;4.82;;;3.67;;
64313;SDS011;50650;48.180;11.524;2023-07-24T14:10:58;6.93;;;4.28;;
64313;SDS011;50650;48.180;11.524;2023-07-24T14:13:28;8.63;;;4.78;;
64313;SDS011;50650;48.180;11.524;2023-07-24T14:15:54;7.10;;;3.92;;
64313;SDS011;50650;48.180;11.524;2023-07-24T14:18:21;7.85;;;3.50;;
64313;SDS011;50650;48.180;11.524;2023-07-24T14:20:47;8.93;;;3.50;;
64313;SDS011;50650;48.180;11.524;2023-07-24T14:23:14;10.35;;;3.47;;
64313;SDS011;50650;48.180;11.524;2023-07-24T14:25:40;6.03;;;3.70;;
64313;SDS011;50650;48.180;11.524;2023-07-24T14:28:07;4.53;;;3.13;;
64313;SDS011;50650;48.180;11.524;2023-07-24T14:30:37;4.78;;;2.92;;
64313;SDS011;50650;48.180;11.524;2023-07-24T14:33:03;5.18;;;3.17;;